Time;durP1;ratioP1;P1;durP2;ratioP2;P2;SDS_P1;SDS_P2;PMS_P1;PMS_P2;Temp;Humidity;BMP_temperature;BMP_pressure;BME280_temperature;BME280_humidity;BME280_pressure;Samples;Min_cycle;Max_cycle;Signal;HPM_P1;HPM_P2
2021/04/08 00:01:10;;;;;;;10.38;1.85;;;2.80;89.50;;;;;;5055746;28;20408;-79
2021/04/08 00:03:36;;;;;;;10.18;1.80;;;2.80;89.50;;;;;;5055775;28;20041;-78
2021/04/08 00:06:02;;;;;;;14.43;2.15;;;2.80;89.50;;;;;;5054789;28;20060;-78
2021/04/08 00:08:29;;;;;;;10.77;1.85;;;2.80;89.40;;;;;;5073366;28;20131;-78
2021/04/08 00:10:55;;;;;;;9.35;1.98;;;2.70;89.40;;;;;;5075563;28;20057;-78
2021/04/08 00:13:21;;;;;;;13.35;2.47;;;2.70;89.50;;;;;;5075095;28;20124;-79
2021/04/08 00:15:47;;;;;;;14.82;2.10;;;2.70;89.50;;;;;;5075386;28;20132;-78
2021/04/08 00:18:13;;;;;;;10.98;2.05;;;2.70;90.00;;;;;;5075529;28;20072;-78
2021/04/08 00:20:38;;;;;;;11.93;1.90;;;2.70;89.40;;;;;;5065962;28;20132;-78
2021/04/08 00:23:04;;;;;;;12.65;2.00;;;2.60;89.50;;;;;;5062793;28;20045;-78
2021/04/08 00:25:30;;;;;;;11.98;2.13;;;2.60;89.50;;;;;;5060720;28;20045;-79
2021/04/08 00:27:55;;;;;;;16.23;2.40;;;2.60;89.70;;;;;;5068137;28;20123;-78
2021/04/08 00:30:21;;;;;;;10.82;1.77;;;2.60;89.70;;;;;;5063688;28;20408;-78
2021/04/08 00:32:47;;;;;;;13.93;2.03;;;2.60;89.70;;;;;;5054871;28;20053;-78
2021/04/08 00:35:13;;;;;;;10.48;1.83;;;2.60;89.80;;;;;;5060280;28;20044;-78
2021/04/08 00:37:39;;;;;;;14.93;1.92;;;2.60;89.90;;;;;;5062396;28;20143;-78
2021/04/08 00:40:12;;;;;;;10.60;2.00;;;2.50;89.80;;;;;;5073843;28;20052;-78
2021/04/08 00:42:42;;;;;;;9.35;1.83;;;2.50;90.00;;;;;;5074989;28;20065;-78
2021/04/08 00:45:09;;;;;;;9.55;1.67;;;2.50;90.00;;;;;;5074747;28;20338;-78
2021/04/08 00:47:36;;;;;;;13.88;1.67;;;2.50;90.10;;;;;;5073827;28;20080;-78
2021/04/08 00:50:03;;;;;;;10.48;1.73;;;2.50;90.10;;;;;;5074739;28;20095;-78
2021/04/08 00:52:30;;;;;;;7.18;1.67;;;2.50;90.10;;;;;;5075035;28;20048;-78
2021/04/08 00:54:55;;;;;;;12.98;1.60;;;2.50;90.10;;;;;;5073725;28;20049;-78
2021/04/08 00:57:21;;;;;;;8.88;1.73;;;2.50;90.20;;;;;;5074955;28;20560;-78
2021/04/08 00:59:47;;;;;;;8.85;1.73;;;2.50;90.20;;;;;;5074565;28;20051;-78
2021/04/08 01:02:13;;;;;;;10.55;1.48;;;2.50;90.20;;;;;;5054991;28;20045;-78
2021/04/08 01:04:39;;;;;;;5.70;1.20;;;2.50;90.10;;;;;;5054474;28;20597;-78
2021/04/08 01:07:04;;;;;;;11.05;1.52;;;2.50;90.10;;;;;;5062559;28;20063;-78
2021/04/08 01:09:30;;;;;;;12.02;1.73;;;2.40;90.00;;;;;;5073823;28;20079;-78
2021/04/08 01:11:56;;;;;;;9.35;1.33;;;2.40;90.10;;;;;;5074468;28;20055;-78
2021/04/08 01:14:22;;;;;;;9.60;2.40;;;2.40;90.10;;;;;;5059967;28;20045;-78
2021/04/08 01:17:19;;;;;;;10.90;1.50;;;2.40;90.10;;;;;;5053614;28;20048;-78
2021/04/08 01:20:14;;;;;;;8.05;1.20;;;2.40;90.10;;;;;;5053326;28;20048;-78
2021/04/08 01:22:49;;;;;;;8.40;1.70;;;2.40;90.10;;;;;;5057026;28;20048;-78
2021/04/08 01:25:42;;;;;;;9.32;1.38;;;2.30;90.10;;;;;;5070910;28;20137;-77
2021/04/08 01:28:19;;;;;;;8.23;1.38;;;2.30;90.00;;;;;;5056098;28;20048;-78
2021/04/08 01:30:51;;;;;;;11.57;1.90;;;2.30;90.10;;;;;;5054602;28;20496;-78
2021/04/08 01:33:34;;;;;;;9.48;1.33;;;2.30;90.20;;;;;;5065799;28;20056;-78
2021/04/08 01:36:15;;;;;;;9.98;1.70;;;2.30;90.30;;;;;;5061555;28;20053;-78
2021/04/08 01:39:01;;;;;;;7.05;1.20;;;2.30;90.30;;;;;;5053832;28;20507;-78
2021/04/08 01:41:27;;;;;;;9.55;1.58;;;2.30;90.30;;;;;;5054120;28;20485;-78
2021/04/08 01:43:57;;;;;;;6.80;1.27;;;2.30;90.30;;;;;;5052611;28;20099;-78
2021/04/08 01:46:25;;;;;;;10.45;1.90;;;2.30;90.30;;;;;;5053894;28;20045;-77
2021/04/08 01:48:54;;;;;;;9.77;1.60;;;2.30;90.30;;;;;;5053596;28;20106;-78
2021/04/08 01:51:22;;;;;;;9.60;1.25;;;2.30;90.30;;;;;;5052425;28;20053;-79
2021/04/08 01:53:51;;;;;;;13.48;1.65;;;2.30;90.30;;;;;;5053361;28;20048;-78
2021/04/08 01:56:19;;;;;;;10.10;1.40;;;2.30;90.40;;;;;;5053718;28;20075;-78
2021/04/08 01:58:46;;;;;;;8.50;1.35;;;2.30;90.70;;;;;;5052486;28;20076;-78
2021/04/08 02:01:12;;;;;;;9.32;1.30;;;2.30;90.40;;;;;;5053606;28;20163;-78
2021/04/08 02:03:41;;;;;;;6.00;1.15;;;2.40;90.40;;;;;;5053832;28;20040;-79
2021/04/08 02:06:12;;;;;;;7.93;1.40;;;2.40;90.40;;;;;;5036323;28;20056;-78
2021/04/08 02:08:44;;;;;;;7.47;1.08;;;2.40;90.30;;;;;;5059683;28;20094;-78
2021/04/08 02:11:11;;;;;;;9.32;1.42;;;2.40;90.30;;;;;;5053361;28;20509;-79
2021/04/08 02:13:39;;;;;;;9.15;1.20;;;2.40;90.30;;;;;;5052626;28;20049;-78
2021/04/08 02:16:09;;;;;;;11.73;1.48;;;2.40;90.30;;;;;;5053289;28;20049;-79
2021/04/08 02:18:37;;;;;;;6.90;1.20;;;2.40;90.30;;;;;;5052603;28;20044;-77
2021/04/08 02:21:03;;;;;;;9.50;1.42;;;2.40;90.30;;;;;;5052753;28;20052;-79
2021/04/08 02:23:32;;;;;;;9.68;1.55;;;2.40;90.40;;;;;;5053183;28;20049;-79
2021/04/08 02:25:59;;;;;;;11.52;1.45;;;2.40;90.40;;;;;;5052262;28;20127;-79
2021/04/08 02:28:31;;;;;;;5.50;1.08;;;2.40;90.30;;;;;;5053394;28;20136;-79
2021/04/08 02:30:59;;;;;;;6.68;1.15;;;2.40;90.40;;;;;;5052824;28;20104;-79
2021/04/08 02:33:29;;;;;;;7.80;1.55;;;2.40;90.30;;;;;;5052297;28;20049;-79
2021/04/08 02:35:57;;;;;;;10.50;1.10;;;2.50;90.40;;;;;;5054925;28;20075;-78
2021/04/08 02:38:25;;;;;;;10.02;1.00;;;2.50;90.30;;;;;;5072526;28;20044;-78
2021/04/08 02:40:51;;;;;;;5.18;1.10;;;2.50;90.30;;;;;;5071876;28;20430;-79
2021/04/08 02:43:18;;;;;;;5.72;0.90;;;2.50;90.30;;;;;;5072992;28;20044;-79
2021/04/08 02:45:44;;;;;;;7.82;1.00;;;2.50;90.20;;;;;;5072395;28;20147;-79
2021/04/08 02:48:11;;;;;;;7.38;1.02;;;2.50;90.10;;;;;;5069625;28;20131;-78
2021/04/08 02:50:40;;;;;;;9.77;1.20;;;2.50;90.10;;;;;;5052700;28;20423;-79
2021/04/08 02:53:11;;;;;;;6.13;1.08;;;2.60;90.10;;;;;;5052704;28;20128;-79
2021/04/08 02:55:49;;;;;;;6.80;1.08;;;2.60;90.10;;;;;;5052239;28;20049;-78
2021/04/08 02:58:20;;;;;;;6.93;1.40;;;2.60;90.10;;;;;;5052703;28;20090;-79
2021/04/08 03:00:55;;;;;;;9.73;1.42;;;2.60;90.00;;;;;;5056628;28;20098;-78
2021/04/08 03:03:31;;;;;;;5.53;1.08;;;2.60;90.00;;;;;;5054104;28;20519;-79
2021/04/08 03:06:04;;;;;;;7.53;1.15;;;2.60;90.00;;;;;;5054771;28;20053;-78
2021/04/08 03:08:31;;;;;;;8.93;1.00;;;2.60;90.00;;;;;;5071712;28;20579;-79
2021/04/08 03:11:01;;;;;;;5.63;1.00;;;2.60;90.00;;;;;;5072121;28;20040;-78
2021/04/08 03:13:31;;;;;;;6.10;1.00;;;2.60;90.00;;;;;;5072561;28;20045;-79
2021/04/08 03:16:01;;;;;;;6.63;0.90;;;2.60;90.10;;;;;;5071315;28;20063;-79
2021/04/08 03:18:27;;;;;;;5.10;1.02;;;2.60;90.00;;;;;;5072150;28;20491;-78
2021/04/08 03:20:54;;;;;;;7.20;1.00;;;2.50;90.00;;;;;;5072321;28;20045;-79
2021/04/08 03:23:23;;;;;;;6.68;0.98;;;2.60;90.00;;;;;;5070941;28;20048;-79
2021/04/08 03:25:50;;;;;;;4.50;0.95;;;2.50;90.10;;;;;;5072124;28;20101;-79
2021/04/08 03:28:17;;;;;;;9.52;1.25;;;2.50;90.10;;;;;;5072219;28;20072;-79
2021/04/08 03:30:44;;;;;;;10.52;1.40;;;2.50;90.10;;;;;;5071479;28;20102;-78
2021/04/08 03:33:15;;;;;;;6.50;1.40;;;2.50;90.00;;;;;;5072545;28;20048;-79
2021/04/08 03:35:48;;;;;;;6.95;1.10;;;2.50;90.10;;;;;;5071164;28;20052;-79
2021/04/08 03:38:18;;;;;;;;;;;2.50;90.10;;;;;;5072666;28;20090;-78
2021/04/08 03:40:45;;;;;;;6.53;1.17;;;2.40;89.40;;;;;;5071866;28;19920;-78
2021/04/08 03:43:14;;;;;;;9.05;1.10;;;2.50;90.00;;;;;;5071463;28;20055;-79
2021/04/08 03:45:41;;;;;;;5.80;0.98;;;2.40;90.00;;;;;;5072211;28;20499;-78
2021/04/08 03:48:13;;;;;;;7.20;1.10;;;2.40;90.10;;;;;;5054534;28;20132;-79
2021/04/08 03:50:42;;;;;;;7.22;1.20;;;2.40;90.10;;;;;;5071315;28;20213;-78
2021/04/08 03:53:09;;;;;;;8.52;1.00;;;2.40;90.10;;;;;;5072077;28;20055;-79
2021/04/08 03:55:36;;;;;;;4.57;0.88;;;2.40;90.10;;;;;;5071869;28;20094;-79
2021/04/08 03:58:06;;;;;;;4.53;0.90;;;2.40;90.20;;;;;;5071064;28;20060;-79
2021/04/08 04:00:34;;;;;;;4.88;0.90;;;2.40;90.20;;;;;;5072099;28;20044;-79
2021/04/08 04:03:00;;;;;;;6.53;1.10;;;2.40;90.20;;;;;;5071435;28;20083;-79
2021/04/08 04:05:26;;;;;;;7.85;1.25;;;2.40;90.30;;;;;;5071179;28;20068;-79
2021/04/08 04:07:52;;;;;;;7.07;1.30;;;2.40;90.30;;;;;;5059696;28;20480;-79
2021/04/08 04:10:21;;;;;;;9.40;1.40;;;2.40;90.40;;;;;;5072203;28;20048;-79
2021/04/08 04:12:51;;;;;;;5.75;1.00;;;2.40;90.40;;;;;;5070922;28;20055;-79
2021/04/08 04:15:18;;;;;;;5.78;1.10;;;2.40;90.50;;;;;;5073238;28;20056;-79
2021/04/08 04:17:44;;;;;;;6.80;1.30;;;2.50;90.60;;;;;;5075406;28;20074;-79
2021/04/08 04:20:15;;;;;;;4.45;1.08;;;2.50;90.60;;;;;;5074638;28;20062;-79
2021/04/08 04:22:42;;;;;;;7.43;1.10;;;2.50;90.60;;;;;;5075352;28;20049;-79
2021/04/08 04:25:10;;;;;;;5.53;1.05;;;2.50;90.60;;;;;;5074682;28;20055;-79
2021/04/08 04:27:35;;;;;;;5.45;1.10;;;2.50;90.60;;;;;;5066309;28;20044;-79
2021/04/08 04:30:06;;;;;;;6.45;1.08;;;2.50;90.60;;;;;;5055053;28;20081;-79
2021/04/08 04:32:32;;;;;;;7.18;1.50;;;2.50;90.70;;;;;;5054675;28;20045;-79
2021/04/08 04:34:58;;;;;;;5.93;0.95;;;2.50;90.60;;;;;;5057191;28;20496;-79
2021/04/08 04:37:24;;;;;;;6.28;1.20;;;2.50;90.50;;;;;;5075361;28;20040;-78
2021/04/08 04:39:50;;;;;;;4.95;1.15;;;2.50;90.40;;;;;;5074159;28;20081;-79
2021/04/08 04:42:18;;;;;;;4.68;0.80;;;2.50;90.40;;;;;;5075112;28;20040;-79
2021/04/08 04:44:44;;;;;;;5.60;1.00;;;2.50;90.40;;;;;;5074504;28;20495;-79
2021/04/08 04:47:10;;;;;;;7.22;1.23;;;2.50;90.40;;;;;;5056056;28;20068;-79
2021/04/08 04:49:41;;;;;;;6.00;1.50;;;2.50;90.40;;;;;;5054664;28;20049;-79
2021/04/08 04:52:07;;;;;;;4.60;1.20;;;2.50;90.40;;;;;;5055056;28;20072;-79
2021/04/08 04:54:35;;;;;;;7.93;1.20;;;2.50;90.30;;;;;;5054298;28;20483;-79
2021/04/08 04:57:03;;;;;;;7.15;1.00;;;2.50;90.30;;;;;;5062254;28;20049;-79
2021/04/08 04:59:29;;;;;;;9.10;1.25;;;2.50;90.30;;;;;;5074827;28;20494;-78
2021/04/08 05:01:58;;;;;;;7.32;1.52;;;2.50;90.30;;;;;;5069999;28;20048;-79
2021/04/08 05:04:23;;;;;;;7.07;0.98;;;2.50;90.60;;;;;;5073977;28;20048;-79
2021/04/08 05:06:49;;;;;;;8.55;1.20;;;2.50;90.10;;;;;;5070625;28;20129;-79
2021/04/08 05:09:15;;;;;;;7.18;1.40;;;2.50;90.10;;;;;;5073917;28;20081;-78
2021/04/08 05:11:41;;;;;;;6.28;1.25;;;2.50;90.10;;;;;;5072109;28;20052;-79
2021/04/08 05:14:06;;;;;;;9.43;1.20;;;2.50;90.10;;;;;;5056306;28;20049;-79
2021/04/08 05:16:32;;;;;;;6.60;1.30;;;2.50;90.10;;;;;;5068652;28;20124;-79
2021/04/08 05:18:58;;;;;;;3.85;0.90;;;2.50;90.10;;;;;;5073477;28;20106;-79
2021/04/08 05:21:25;;;;;;;6.70;1.38;;;2.50;90.10;;;;;;5073012;28;20059;-79
2021/04/08 05:23:50;;;;;;;6.43;1.17;;;2.50;90.10;;;;;;5072333;28;20044;-78
2021/04/08 05:26:16;;;;;;;8.90;1.50;;;2.50;90.10;;;;;;5073284;28;20052;-79
2021/04/08 05:28:42;;;;;;;7.72;1.08;;;2.50;90.00;;;;;;5073184;28;20075;-79
2021/04/08 05:31:08;;;;;;;8.10;1.50;;;2.50;90.00;;;;;;5073983;28;20044;-79
2021/04/08 05:33:34;;;;;;;7.18;1.20;;;2.50;90.00;;;;;;5058934;28;20090;-79
2021/04/08 05:36:00;;;;;;;5.18;1.10;;;2.50;90.00;;;;;;5056799;28;20053;-80
2021/04/08 05:38:30;;;;;;;5.00;1.00;;;2.50;90.00;;;;;;5065219;28;20059;-80
2021/04/08 05:40:58;;;;;;;8.68;1.10;;;2.50;90.00;;;;;;5070501;28;20113;-79
2021/04/08 05:43:24;;;;;;;6.47;1.20;;;2.60;90.10;;;;;;5071389;28;20460;-80
2021/04/08 05:45:53;;;;;;;7.03;1.33;;;2.60;90.10;;;;;;5067213;28;20053;-80
2021/04/08 05:48:18;;;;;;;8.30;1.40;;;2.60;90.20;;;;;;5061289;28;20053;-79
2021/04/08 05:50:44;;;;;;;7.47;1.15;;;2.60;90.20;;;;;;5072168;28;20136;-79
2021/04/08 05:53:10;;;;;;;5.85;1.15;;;2.60;90.20;;;;;;5060472;28;20484;-79
2021/04/08 05:55:41;;;;;;;8.30;1.10;;;2.70;90.20;;;;;;5057744;28;20048;-79
2021/04/08 05:58:07;;;;;;;8.43;1.33;;;2.70;90.10;;;;;;5058833;28;20390;-79
2021/04/08 06:00:35;;;;;;;7.25;1.30;;;2.70;90.10;;;;;;5070367;28;20097;-78
2021/04/08 06:03:01;;;;;;;9.80;1.50;;;2.70;90.10;;;;;;5069470;28;20814;-78
2021/04/08 06:05:27;;;;;;;4.93;1.40;;;2.80;90.10;;;;;;5070015;28;20047;-78
2021/04/08 06:07:53;;;;;;;7.00;1.38;;;2.80;90.00;;;;;;5069447;28;20044;-78
2021/04/08 06:10:18;;;;;;;8.82;1.45;;;2.80;90.00;;;;;;5068724;28;20128;-78
2021/04/08 06:12:44;;;;;;;7.07;1.20;;;2.80;90.00;;;;;;5061875;28;20083;-78
2021/04/08 06:15:20;;;;;;;9.00;1.25;;;2.80;90.00;;;;;;5064080;28;20040;-78
2021/04/08 06:17:46;;;;;;;5.45;1.17;;;2.80;90.00;;;;;;5060812;28;20048;-78
2021/04/08 06:20:13;;;;;;;10.30;1.33;;;2.80;90.00;;;;;;5066657;28;20048;-78
2021/04/08 06:22:39;;;;;;;8.65;1.20;;;2.80;89.90;;;;;;5072663;28;20044;-78
2021/04/08 06:25:05;;;;;;;5.20;0.90;;;2.90;89.90;;;;;;5059425;28;20067;-78
2021/04/08 06:27:34;;;;;;;9.70;1.40;;;2.90;89.90;;;;;;5069510;28;20127;-78
2021/04/08 06:30:01;;;;;;;6.22;1.48;;;2.90;89.80;;;;;;5068927;28;20048;-79
2021/04/08 06:32:29;;;;;;;4.72;0.88;;;2.90;89.80;;;;;;5058787;28;20102;-79
2021/04/08 06:34:56;;;;;;;3.10;0.88;;;3.00;89.70;;;;;;5057017;28;20052;-78
2021/04/08 06:37:22;;;;;;;6.13;1.10;;;3.00;89.60;;;;;;5059471;28;20407;-79
2021/04/08 06:39:51;;;;;;;7.43;1.30;;;3.00;89.70;;;;;;5067521;28;20041;-79
2021/04/08 06:42:18;;;;;;;5.93;1.08;;;3.00;89.90;;;;;;5064838;28;20087;-79
2021/04/08 06:44:51;;;;;;;5.22;0.90;;;3.00;89.90;;;;;;5058697;28;20095;-78
2021/04/08 06:47:58;;;;;;;6.85;1.20;;;3.00;90.30;;;;;;5065750;28;20048;-79
2021/04/08 06:50:27;;;;;;;6.05;1.40;;;3.10;89.90;;;;;;5058807;28;20037;-79
2021/04/08 06:52:54;;;;;;;5.53;1.35;;;3.10;90.00;;;;;;5071469;28;20063;-79
2021/04/08 06:55:20;;;;;;;7.80;0.80;;;3.10;90.00;;;;;;5072077;28;20514;-79
2021/04/08 06:57:48;;;;;;;7.95;1.30;;;3.10;90.00;;;;;;5062474;28;20434;-79
2021/04/08 07:00:15;;;;;;;6.47;1.35;;;3.20;90.10;;;;;;5069601;28;20067;-79
2021/04/08 07:02:43;;;;;;;8.60;1.50;;;3.20;90.10;;;;;;5071359;28;20044;-80
2021/04/08 07:05:13;;;;;;;5.78;1.20;;;3.20;90.10;;;;;;5070300;28;20044;-79
2021/04/08 07:07:39;;;;;;;7.00;1.40;;;3.30;90.10;;;;;;5061691;28;20072;-79
2021/04/08 07:10:05;;;;;;;5.70;1.25;;;3.30;90.10;;;;;;5065222;28;20507;-79
2021/04/08 07:12:31;;;;;;;5.93;1.35;;;3.30;90.10;;;;;;5072085;28;20041;-79
2021/04/08 07:14:57;;;;;;;9.85;1.45;;;3.40;90.10;;;;;;5071003;28;20049;-78
2021/04/08 07:17:23;;;;;;;5.82;1.30;;;3.40;90.00;;;;;;5060163;28;21397;-78
2021/04/08 07:19:49;;;;;;;3.70;0.90;;;3.40;90.00;;;;;;5060364;28;20460;-77
2021/04/08 07:22:17;;;;;;;6.45;1.40;;;3.50;90.00;;;;;;5065544;28;20048;-78
2021/04/08 07:24:48;;;;;;;6.93;1.20;;;3.50;90.00;;;;;;5060492;28;20041;-78
2021/04/08 07:27:17;;;;;;;8.25;1.30;;;3.50;90.00;;;;;;5062048;28;20395;-78
2021/04/08 07:29:44;;;;;;;7.82;1.65;;;3.60;90.00;;;;;;5070793;28;20079;-77
2021/04/08 07:32:12;;;;;;;8.98;1.48;;;3.60;90.00;;;;;;5072200;28;20045;-79
2021/04/08 07:34:45;;;;;;;10.77;1.75;;;3.70;90.00;;;;;;5062821;28;20051;-78
2021/04/08 07:37:13;;;;;;;9.23;1.58;;;3.70;90.00;;;;;;5070979;28;20041;-78
2021/04/08 07:39:44;;;;;;;6.93;1.17;;;3.70;90.00;;;;;;5055346;28;20053;-78
2021/04/08 07:42:15;;;;;;;7.50;1.10;;;3.80;90.00;;;;;;5066504;28;20774;-78
2021/04/08 07:44:46;;;;;;;10.02;1.50;;;3.80;90.00;;;;;;5058783;28;20385;-78
2021/04/08 07:47:33;;;;;;;8.00;1.58;;;3.90;89.90;;;;;;5046497;28;20048;-78
2021/04/08 07:50:04;;;;;;;9.60;1.60;;;3.90;89.90;;;;;;5058383;28;20055;-77
2021/04/08 07:52:45;;;;;;;6.18;1.23;;;4.00;89.80;;;;;;5062576;28;20416;-78
2021/04/08 07:55:14;;;;;;;10.95;1.30;;;4.10;89.60;;;;;;5058443;28;20563;-78
2021/04/08 07:58:12;;;;;;;9.85;1.40;;;4.10;89.50;;;;;;5071961;28;20067;-78
2021/04/08 08:00:45;;;;;;;5.97;1.52;;;4.20;89.40;;;;;;5067336;28;20094;-79
2021/04/08 08:03:25;;;;;;;10.43;1.95;;;4.20;89.40;;;;;;5065109;28;20143;-78
2021/04/08 08:05:57;;;;;;;11.88;1.42;;;4.30;89.30;;;;;;5070886;28;20049;-78
2021/04/08 08:08:27;;;;;;;8.93;1.58;;;4.40;89.30;;;;;;5072777;28;20048;-78
2021/04/08 08:11:05;;;;;;;9.02;1.38;;;4.50;89.20;;;;;;5071384;28;20052;-77
2021/04/08 08:13:35;;;;;;;8.20;1.35;;;4.50;88.80;;;;;;5075249;28;20076;-78
2021/04/08 08:16:02;;;;;;;7.50;1.20;;;4.60;88.80;;;;;;5074376;28;20052;-77
2021/04/08 08:18:34;;;;;;;11.60;1.27;;;4.60;88.80;;;;;;5074405;28;20476;-78
2021/04/08 08:21:10;;;;;;;7.70;1.60;;;4.70;88.80;;;;;;5069349;28;20052;-78
2021/04/08 08:23:52;;;;;;;8.40;1.30;;;4.70;88.70;;;;;;5072219;28;20123;-78
2021/04/08 08:26:31;;;;;;;8.45;1.58;;;4.70;88.60;;;;;;5063354;28;20099;-78
2021/04/08 08:29:10;;;;;;;10.95;1.38;;;4.80;88.40;;;;;;5074896;28;20045;-78
2021/04/08 08:31:57;;;;;;;8.70;1.60;;;4.80;88.30;;;;;;5066530;28;20052;-77
2021/04/08 08:34:37;;;;;;;7.85;1.70;;;4.80;88.30;;;;;;5061700;28;20520;-79
2021/04/08 08:37:13;;;;;;;7.95;1.65;;;4.80;88.30;;;;;;5068039;28;20135;-79
2021/04/08 08:39:46;;;;;;;11.07;1.45;;;4.90;88.30;;;;;;5057671;28;20059;-80
2021/04/08 08:42:19;;;;;;;9.20;1.55;;;4.90;88.30;;;;;;5071487;28;20037;-78
2021/04/08 08:44:45;;;;;;;11.57;1.83;;;5.00;88.30;;;;;;5064964;28;20515;-79
2021/04/08 08:47:28;;;;;;;14.25;2.08;;;5.00;88.10;;;;;;5070243;28;20495;-79
2021/04/08 08:50:08;;;;;;;8.38;2.10;;;5.00;87.90;;;;;;5073137;28;20480;-80
2021/04/08 08:52:38;;;;;;;9.10;2.10;;;5.00;87.80;;;;;;5072159;28;20040;-79
2021/04/08 08:55:09;;;;;;;12.48;2.13;;;5.10;87.80;;;;;;5065948;28;20052;-79
2021/04/08 08:57:37;;;;;;;7.45;1.90;;;5.10;87.80;;;;;;5074504;28;20040;-80
2021/04/08 09:00:09;;;;;;;8.83;1.73;;;5.10;87.60;;;;;;5067160;28;20041;-80
2021/04/08 09:02:38;;;;;;;12.18;2.15;;;5.10;87.70;;;;;;5040080;28;20123;-78
2021/04/08 09:05:14;;;;;;;12.60;2.15;;;5.20;87.80;;;;;;5051844;28;20071;-79
2021/04/08 09:07:41;;;;;;;12.95;2.58;;;5.20;87.70;;;;;;5059010;28;20056;-80
2021/04/08 09:10:09;;;;;;;8.13;1.95;;;5.30;87.70;;;;;;5069600;28;20041;-79
2021/04/08 09:12:35;;;;;;;7.40;1.70;;;5.30;87.70;;;;;;5063184;28;20052;-80
2021/04/08 09:15:05;;;;;;;7.75;2.05;;;5.40;88.40;;;;;;5058022;28;20085;-79
2021/04/08 09:17:45;;;;;;;9.98;2.13;;;5.40;87.50;;;;;;5066742;28;20041;-79
2021/04/08 09:20:18;;;;;;;8.40;1.85;;;5.50;87.20;;;;;;5065352;28;20052;-79
2021/04/08 09:22:59;;;;;;;9.60;1.98;;;5.50;87.00;;;;;;5072448;28;20045;-79
2021/04/08 09:25:33;;;;;;;6.45;1.65;;;5.60;86.60;;;;;;5069071;28;20048;-79
2021/04/08 09:28:08;;;;;;;7.80;1.80;;;5.70;85.90;;;;;;5071456;28;20467;-80
2021/04/08 09:30:58;;;;;;;10.27;1.80;;;5.80;85.40;;;;;;5072972;28;20488;-80
2021/04/08 09:33:42;;;;;;;8.38;1.90;;;5.90;85.30;;;;;;5070947;28;20129;-82
2021/04/08 09:36:20;;;;;;;7.03;1.23;;;6.10;84.60;;;;;;5057310;28;20114;-81
2021/04/08 09:38:47;;;;;;;6.18;1.60;;;6.10;83.80;;;;;;5073365;28;20053;-78
2021/04/08 09:41:13;;;;;;;7.13;1.50;;;6.20;83.40;;;;;;5073443;28;20133;-79
2021/04/08 09:43:39;;;;;;;9.27;1.90;;;6.30;82.90;;;;;;5058438;28;20524;-78
2021/04/08 09:46:07;;;;;;;8.13;1.70;;;6.30;81.90;;;;;;5069289;28;20386;-78
2021/04/08 09:48:48;;;;;;;6.45;1.70;;;6.30;81.40;;;;;;5072542;28;20048;-79
2021/04/08 09:51:29;;;;;;;5.68;1.63;;;6.40;81.30;;;;;;5059755;28;20057;-79
2021/04/08 09:53:56;;;;;;;9.35;1.73;;;6.50;80.40;;;;;;5069763;28;20071;-79
2021/04/08 09:56:57;;;;;;;8.75;2.40;;;6.60;80.10;;;;;;5065383;28;20408;-79
2021/04/08 09:59:24;;;;;;;7.40;1.85;;;6.60;78.70;;;;;;4992400;28;20050;-78
2021/04/08 10:01:51;;;;;;;8.43;1.90;;;6.60;79.20;;;;;;5044331;28;20049;-80
2021/04/08 10:04:19;;;;;;;8.25;2.17;;;6.60;78.80;;;;;;5066818;28;20041;-79
2021/04/08 10:06:45;;;;;;;11.15;2.20;;;6.70;78.40;;;;;;5062008;28;20408;-79
2021/04/08 10:09:15;;;;;;;7.93;2.15;;;6.70;78.10;;;;;;5065741;28;20484;-79
2021/04/08 10:11:41;;;;;;;9.80;2.38;;;6.70;77.40;;;;;;5058694;28;20495;-79
2021/04/08 10:14:24;;;;;;;9.30;2.03;;;6.70;77.50;;;;;;5068119;28;20399;-80
2021/04/08 10:17:04;;;;;;;10.48;2.50;;;6.70;77.80;;;;;;5064245;28;20056;-79
2021/04/08 10:19:49;;;;;;;8.57;1.98;;;6.70;77.80;;;;;;5046001;28;20052;-79
2021/04/08 10:22:43;;;;;;;7.35;1.98;;;6.80;77.80;;;;;;5044807;28;20048;-79
2021/04/08 10:25:31;;;;;;;5.47;2.00;;;6.80;77.40;;;;;;5047260;28;20152;-79
2021/04/08 10:28:18;;;;;;;8.98;2.40;;;6.80;77.50;;;;;;5052353;28;20049;-79
2021/04/08 10:31:25;;;;;;;7.32;1.90;;;6.80;77.50;;;;;;5078377;22;20043;-79
2021/04/08 10:34:07;;;;;;;7.05;2.20;;;6.90;74.30;;;;;;5087070;28;20399;-79
2021/04/08 10:36:41;;;;;;;6.50;2.33;;;6.90;74.80;;;;;;5082097;28;20048;-80
2021/04/08 10:39:18;;;;;;;8.55;2.08;;;7.00;74.70;;;;;;5086850;28;20048;-80
2021/04/08 10:41:56;;;;;;;6.78;2.08;;;7.00;74.00;;;;;;5088637;28;20384;-79
2021/04/08 10:44:26;;;;;;;6.00;2.25;;;7.00;72.90;;;;;;5089543;28;20078;-80
2021/04/08 10:46:53;;;;;;;7.35;2.47;;;7.00;72.30;;;;;;5082433;28;20502;-79
2021/04/08 10:49:30;;;;;;;5.22;2.10;;;7.00;72.50;;;;;;5090076;28;20039;-80
2021/04/08 10:52:01;;;;;;;7.80;2.28;;;7.00;70.70;;;;;;5088982;28;20055;-79
2021/04/08 10:54:30;;;;;;;7.50;2.25;;;7.00;71.00;;;;;;5083821;28;20059;-79
2021/04/08 10:56:57;;;;;;;6.70;2.10;;;7.00;70.40;;;;;;5091550;28;20412;-79
2021/04/08 10:59:24;;;;;;;7.82;2.80;;;7.00;69.10;;;;;;5081757;28;20036;-80
2021/04/08 11:01:51;;;;;;;5.20;2.45;;;7.00;68.00;;;;;;5088646;28;20052;-80
2021/04/08 11:04:18;;;;;;;6.18;2.50;;;7.00;68.40;;;;;;5072144;28;20036;-78
2021/04/08 11:06:45;;;;;;;7.03;2.42;;;7.00;68.30;;;;;;5071404;28;20139;-80
2021/04/08 11:09:11;;;;;;;5.88;3.13;;;7.00;66.40;;;;;;5076003;28;20072;-78
2021/04/08 11:11:37;;;;;;;11.25;3.28;;;7.10;66.70;;;;;;5075798;28;20144;-81
2021/04/08 11:14:03;;;;;;;7.38;3.10;;;7.10;66.30;;;;;;5074850;28;20055;-79
2021/04/08 11:16:30;;;;;;;7.03;2.92;;;7.10;66.80;;;;;;5076297;28;20040;-81
2021/04/08 11:18:58;;;;;;;7.45;2.90;;;7.10;66.80;;;;;;5090180;28;20055;-80
2021/04/08 11:21:28;;;;;;;10.30;3.22;;;7.10;66.30;;;;;;5088731;28;20569;-80
2021/04/08 11:23:55;;;;;;;5.00;2.83;;;7.20;66.70;;;;;;5085916;28;20048;-79
2021/04/08 11:26:21;;;;;;;6.90;3.05;;;7.20;67.10;;;;;;5093823;28;20477;-79
2021/04/08 11:28:53;;;;;;;9.57;3.10;;;7.20;67.00;;;;;;5091282;28;20110;-80
2021/04/08 11:31:21;;;;;;;8.23;2.90;;;7.30;67.40;;;;;;5089242;28;20055;-80
2021/04/08 11:33:55;;;;;;;7.43;2.90;;;7.30;66.80;;;;;;5077246;28;20065;-80
2021/04/08 11:36:22;;;;;;;6.20;2.92;;;7.40;67.90;;;;;;5084738;28;20048;-80
2021/04/08 11:38:48;;;;;;;8.35;3.30;;;7.40;67.90;;;;;;5094300;28;20479;-81
2021/04/08 11:41:14;;;;;;;7.82;3.33;;;7.50;67.10;;;;;;5082614;28;20044;-80
2021/04/08 11:43:58;;;;;;;9.10;3.70;;;7.50;67.10;;;;;;5084614;28;20070;-81
2021/04/08 11:46:31;;;;;;;;;;;7.50;66.80;;;;;;5084158;28;20044;-80
2021/04/08 11:48:58;;;;;;;7.50;3.65;;;7.50;65.20;;;;;;5074856;28;19973;-79
2021/04/08 11:51:30;;;;;;;8.35;3.50;;;7.50;67.80;;;;;;5079717;28;20123;-79
2021/04/08 11:54:07;;;;;;;7.75;3.80;;;7.60;67.20;;;;;;5080564;28;20048;-79
2021/04/08 11:59:40;;;;;;;8.68;4.25;;;7.60;67.50;;;;;;5081412;28;20495;-80
2021/04/08 12:02:06;;;;;;;11.10;4.70;;;7.60;67.30;;;;;;5092336;28;20048;-79
2021/04/08 12:04:32;;;;;;;9.75;4.30;;;7.50;67.50;;;;;;5083923;28;20054;-80
2021/04/08 12:07:05;;;;;;;9.75;4.75;;;7.60;67.70;;;;;;5092354;28;20040;-80
2021/04/08 12:09:48;;;;;;;9.40;4.60;;;7.60;67.70;;;;;;5082432;28;20455;-80
2021/04/08 12:12:15;;;;;;;11.95;4.57;;;7.60;66.80;;;;;;5089367;28;20046;-81
2021/04/08 12:14:53;;;;;;;9.68;4.97;;;7.60;67.10;;;;;;5084811;28;20079;-81
2021/04/08 12:17:19;;;;;;;10.13;5.10;;;7.70;67.60;;;;;;5083871;28;20124;-80
2021/04/08 12:19:45;;;;;;;7.85;4.88;;;7.70;67.40;;;;;;5086151;28;20156;-80
2021/04/08 12:22:12;;;;;;;7.93;5.20;;;7.80;67.00;;;;;;5093911;28;20044;-81
2021/04/08 12:24:39;;;;;;;7.70;5.00;;;7.80;67.60;;;;;;5090990;28;20050;-80
2021/04/08 12:27:18;;;;;;;10.77;4.95;;;7.80;67.10;;;;;;5082348;28;20056;-81
2021/04/08 12:29:45;;;;;;;11.23;5.32;;;7.80;67.00;;;;;;5090660;28;20415;-80
2021/04/08 12:32:10;;;;;;;8.98;5.05;;;7.80;67.10;;;;;;5092426;28;20094;-83
2021/04/08 12:34:36;;;;;;;9.32;6.03;;;7.80;66.80;;;;;;5078602;28;20040;-81
2021/04/08 12:37:02;;;;;;;11.70;6.00;;;7.80;67.20;;;;;;5092252;28;20067;-84
2021/04/08 12:39:28;;;;;;;9.63;5.70;;;7.80;67.80;;;;;;5086666;28;20063;-83
2021/04/08 12:41:54;;;;;;;9.88;5.72;;;7.80;67.50;;;;;;5087261;28;20427;-85
2021/04/08 12:44:22;;;;;;;9.00;5.82;;;7.80;67.50;;;;;;5094054;28;20058;-89
2021/04/08 12:47:00;;;;;;;11.48;6.15;;;7.90;67.80;;;;;;5089205;28;20102;-84
2021/04/08 12:49:28;;;;;;;10.18;6.40;;;7.90;67.60;;;;;;5092062;28;20052;-84
2021/04/08 12:52:29;;;;;;;10.20;6.40;;;8.00;68.40;;;;;;5083840;28;20055;-85
2021/04/08 12:55:32;;;;;;;9.20;6.43;;;8.00;67.40;;;;;;4972909;28;20423;-85
2021/04/08 12:58:17;;;;;;;9.85;5.82;;;8.10;66.40;;;;;;4988318;28;20053;-84
2021/04/08 13:00:43;;;;;;;8.98;6.38;;;8.20;66.30;;;;;;4972938;28;20061;-84
2021/04/08 13:03:17;;;;;;;10.80;6.43;;;8.20;66.10;;;;;;4974179;28;20050;-84
2021/04/08 13:05:52;;;;;;;12.10;6.30;;;8.30;65.20;;;;;;5015852;28;20855;-84
2021/04/08 13:08:20;;;;;;;10.05;6.45;;;8.30;65.30;;;;;;5089606;28;20126;-83
2021/04/08 13:10:49;;;;;;;12.35;6.55;;;8.40;65.50;;;;;;5080243;28;20055;-83
2021/04/08 13:13:26;;;;;;;10.25;6.28;;;8.40;65.50;;;;;;5087125;28;20448;-84
2021/04/08 13:16:04;;;;;;;11.27;6.07;;;8.40;65.50;;;;;;5090990;28;20078;-84